Time;durP1;ratioP1;P1;durP2;ratioP2;P2;SDS_P1;SDS_P2;PMS_P1;PMS_P2;Temp;Humidity;BMP_temperature;BMP_pressure;BME280_temperature;BME280_humidity;BME280_pressure;Samples;Min_cycle;Max_cycle;Signal;HPM_P1;HPM_P2
2023/07/19 00:01:14;;;;;;;;;;;;;;;;;;2051001;28;19910;-90
2023/07/19 00:02:35;;;;;;;;;;;;;;;;;;2049804;28;19917;-90
2023/07/19 00:03:55;;;;;;;;;;;;;;;;;;2055674;28;20308;-90
2023/07/19 00:05:16;;;;;;;;;;;;;;;;;;2055932;28;19906;-90
2023/07/19 00:06:37;;;;;;;;;;;;;;;;;;2057799;28;19914;-90
2023/07/19 00:08:11;;;;;;;;;;;;;;;;;;2057128;28;20308;-90
2023/07/19 00:09:32;;;;;;;;;;;;;;;;;;2059170;28;19914;-90
2023/07/19 00:10:53;;;;;;;;;;;;;;;;;;2054758;28;19917;-88
2023/07/19 00:12:13;;;;;;;;;;;;;;;;;;2063778;28;19929;-90
2023/07/19 00:13:34;;;;;;;;;;;;;;;;;;2061249;28;19917;-91
2023/07/19 00:14:55;;;;;;;;;;;;;;;;;;2070960;28;19968;-90
2023/07/19 00:16:16;;;;;;;;;;;;;;;;;;2063032;28;20009;-90
2023/07/19 00:17:36;;;;;;;;;;;;;;;;;;2058846;28;19910;-90
2023/07/19 00:18:57;;;;;;;;;;;;;;;;;;2057874;28;19905;-90
2023/07/19 00:20:18;;;;;;;;;;;;;;;;;;2055417;28;19907;-91
2023/07/19 00:21:39;;;;;;;;;;;;;;;;;;2058313;28;19914;-91
2023/07/19 00:23:00;;;;;;;;;;;;;;;;;;2055853;28;20029;-91
2023/07/19 00:24:21;;;;;;;;;;;;;;;;;;2058301;28;20376;-90
2023/07/19 00:25:41;;;;;;;;;;;;;;;;;;2055513;28;20337;-91
2023/07/19 00:27:02;;;;;;;;;;;;;;;;;;2052317;28;19911;-91
2023/07/19 00:28:23;;;;;;;;;;;;;;;;;;2055762;28;19906;-90
2023/07/19 00:29:44;;;;;;;;;;;;;;;;;;2066967;28;19944;-90
2023/07/19 00:31:04;;;;;;;;;;;;;;;;;;2053872;28;19906;-90
2023/07/19 00:32:25;;;;;;;;;;;;;;;;;;2069354;28;19956;-90
2023/07/19 00:33:46;;;;;;;;;;;;;;;;;;2056995;28;20258;-90
2023/07/19 00:35:07;;;;;;;;;;;;;;;;;;2054150;28;20264;-90
2023/07/19 00:36:28;;;;;;;;;;;;;;;;;;2057582;28;19914;-90
2023/07/19 00:37:48;;;;;;;;;;;;;;;;;;2061048;28;19910;-91
2023/07/19 00:39:09;;;;;;;;;;;;;;;;;;2057276;28;20341;-90
2023/07/19 00:40:30;;;;;;;;;;;;;;;;;;2055564;28;19909;-90
2023/07/19 00:41:51;;;;;;;;;;;;;;;;;;2056243;28;19917;-91
2023/07/19 00:43:11;;;;;;;;;;;;;;;;;;2062939;28;20028;-91
2023/07/19 00:44:32;;;;;;;;;;;;;;;;;;2057977;28;20310;-91
2023/07/19 00:45:53;;;;;;;;;;;;;;;;;;2056163;28;19909;-90
2023/07/19 00:47:13;;;;;;;;;;;;;;;;;;2063295;28;19936;-90
2023/07/19 00:48:34;;;;;;;;;;;;;;;;;;2060124;28;19964;-90
2023/07/19 00:49:55;;;;;;;;;;;;;;;;;;2064488;28;19914;-89
2023/07/19 00:51:16;;;;;;;;;;;;;;;;;;2055297;28;19906;-90
2023/07/19 00:52:36;;;;;;;;;;;;;;;;;;2059115;28;19917;-91
2023/07/19 00:53:57;;;;;;;;;;;;;;;;;;2056598;28;19906;-91
2023/07/19 00:55:18;;;;;;;;;;;;;;;;;;2054101;28;20062;-89
2023/07/19 00:56:39;;;;;;;;;;;;;;;;;;2051366;28;20399;-89
2023/07/19 00:58:00;;;;;;;;;;;;;;;;;;2058373;28;19906;-89
2023/07/19 00:59:20;;;;;;;;;;;;;;;;;;2055581;28;19906;-89
2023/07/19 01:00:41;;;;;;;;;;;;;;;;;;2062719;28;19920;-89
2023/07/19 01:02:02;;;;;;;;;;;;;;;;;;2055635;28;19906;-89
2023/07/19 01:03:22;;;;;;;;;;;;;;;;;;2057740;28;19910;-89
2023/07/19 01:04:43;;;;;;;;;;;;;;;;;;2054856;28;19922;-90
2023/07/19 01:06:06;;;;;;;;;;;;;;;;;;2047608;28;20238;-90
2023/07/19 01:07:28;;;;;;;;;;;;;;;;;;2048024;28;19910;-90
2023/07/19 01:08:49;;;;;;;;;;;;;;;;;;2058838;28;19913;-89
2023/07/19 01:10:12;;;;;;;;;;;;;;;;;;2053926;28;19906;-90
2023/07/19 01:11:33;;;;;;;;;;;;;;;;;;2066617;28;20317;-90
2023/07/19 01:12:54;;;;;;;;;;;;;;;;;;2057680;28;19914;-90
2023/07/19 01:14:14;;;;;;;;;;;;;;;;;;2051324;28;19910;-90
2023/07/19 01:15:35;;;;;;;;;;;;;;;;;;2058174;28;19905;-90
2023/07/19 01:16:56;;;;;;;;;;;;;;;;;;2046872;29;19911;-90
2023/07/19 01:18:17;;;;;;;;;;;;;;;;;;2051048;28;19907;-90
2023/07/19 01:19:38;;;;;;;;;;;;;;;;;;2052560;28;20390;-90
2023/07/19 01:20:59;;;;;;;;;;;;;;;;;;2054637;28;19906;-90
2023/07/19 01:22:19;;;;;;;;;;;;;;;;;;2049480;29;19953;-89
2023/07/19 01:23:40;;;;;;;;;;;;;;;;;;2053031;28;19906;-90
2023/07/19 01:25:02;;;;;;;;;;;;;;;;;;2055653;28;19914;-90
2023/07/19 01:26:25;;;;;;;;;;;;;;;;;;2058075;28;19914;-90
2023/07/19 01:27:46;;;;;;;;;;;;;;;;;;2055723;28;19913;-90
2023/07/19 01:29:06;;;;;;;;;;;;;;;;;;2065587;28;19906;-90
2023/07/19 01:30:27;;;;;;;;;;;;;;;;;;2057187;28;19910;-89
2023/07/19 01:31:48;;;;;;;;;;;;;;;;;;2049196;28;19907;-89
2023/07/19 01:33:09;;;;;;;;;;;;;;;;;;2047577;29;19914;-90
2023/07/19 01:34:29;;;;;;;;;;;;;;;;;;2063552;28;19994;-89
2023/07/19 01:35:50;;;;;;;;;;;;;;;;;;2057611;28;19906;-89
2023/07/19 01:37:11;;;;;;;;;;;;;;;;;;2058398;28;19906;-90
2023/07/19 01:38:31;;;;;;;;;;;;;;;;;;2055382;28;20320;-90
2023/07/19 01:39:52;;;;;;;;;;;;;;;;;;2060255;28;19966;-90
2023/07/19 01:41:13;;;;;;;;;;;;;;;;;;2067996;28;19906;-90
2023/07/19 01:42:34;;;;;;;;;;;;;;;;;;2071694;28;19910;-89
2023/07/19 01:43:54;;;;;;;;;;;;;;;;;;2058689;28;20034;-89
2023/07/19 01:45:15;;;;;;;;;;;;;;;;;;2057381;28;19966;-89
2023/07/19 01:46:38;;;;;;;;;;;;;;;;;;2065014;28;19913;-89
2023/07/19 01:47:59;;;;;;;;;;;;;;;;;;2064835;28;20273;-90
2023/07/19 01:49:19;;;;;;;;;;;;;;;;;;2074330;28;19905;-89
2023/07/19 01:50:40;;;;;;;;;;;;;;;;;;2064914;28;19922;-89
2023/07/19 01:52:01;;;;;;;;;;;;;;;;;;2058779;28;19906;-89
2023/07/19 01:53:22;;;;;;;;;;;;;;;;;;2059440;28;19910;-89
2023/07/19 01:54:42;;;;;;;;;;;;;;;;;;2059663;28;19906;-89
2023/07/19 01:56:03;;;;;;;;;;;;;;;;;;2057692;28;19919;-89
2023/07/19 01:57:24;;;;;;;;;;;;;;;;;;2057718;28;20005;-89
2023/07/19 01:58:45;;;;;;;;;;;;;;;;;;2060580;28;20365;-89
2023/07/19 02:00:05;;;;;;;;;;;;;;;;;;2056441;28;19906;-89
2023/07/19 02:01:26;;;;;;;;;;;;;;;;;;2073049;28;19921;-90
2023/07/19 02:02:47;;;;;;;;;;;;;;;;;;2064214;28;19913;-90
2023/07/19 02:04:08;;;;;;;;;;;;;;;;;;2057679;28;19917;-90
2023/07/19 02:05:28;;;;;;;;;;;;;;;;;;2059431;28;19924;-90
2023/07/19 02:06:49;;;;;;;;;;;;;;;;;;2058462;28;19914;-90
2023/07/19 02:08:10;;;;;;;;;;;;;;;;;;2061766;28;19914;-90
2023/07/19 02:09:31;;;;;;;;;;;;;;;;;;2056517;28;19917;-89
2023/07/19 02:10:51;;;;;;;;;;;;;;;;;;2058210;28;19921;-90
2023/07/19 02:12:12;;;;;;;;;;;;;;;;;;2050327;28;19910;-90
2023/07/19 02:13:33;;;;;;;;;;;;;;;;;;2049259;29;19910;-89
2023/07/19 02:14:54;;;;;;;;;;;;;;;;;;2057871;28;19906;-90
2023/07/19 02:16:15;;;;;;;;;;;;;;;;;;2056981;28;19910;-90
2023/07/19 02:17:36;;;;;;;;;;;;;;;;;;2053218;28;19906;-90
2023/07/19 02:18:56;;;;;;;;;;;;;;;;;;2067913;28;19984;-89
2023/07/19 02:20:19;;;;;;;;;;;;;;;;;;2057198;28;20342;-90
2023/07/19 02:21:40;;;;;;;;;;;;;;;;;;2068799;28;19906;-90
2023/07/19 02:23:01;;;;;;;;;;;;;;;;;;2060064;28;19906;-90
2023/07/19 02:24:22;;;;;;;;;;;;;;;;;;2055826;28;19912;-90
2023/07/19 02:25:42;;;;;;;;;;;;;;;;;;2057534;28;19980;-90
2023/07/19 02:27:03;;;;;;;;;;;;;;;;;;2051487;29;20377;-90
2023/07/19 02:28:24;;;;;;;;;;;;;;;;;;2058103;28;19921;-90
2023/07/19 02:29:44;;;;;;;;;;;;;;;;;;2061132;28;19921;-90
2023/07/19 02:31:05;;;;;;;;;;;;;;;;;;2050022;28;19910;-90
2023/07/19 02:32:26;;;;;;;;;;;;;;;;;;2066396;28;19917;-90
2023/07/19 02:33:47;;;;;;;;;;;;;;;;;;2063125;28;19913;-90
2023/07/19 02:35:07;;;;;;;;;;;;;;;;;;2057610;28;19914;-90
2023/07/19 02:36:28;;;;;;;;;;;;;;;;;;2059736;28;19918;-94
2023/07/19 02:37:49;;;;;;;;;;;;;;;;;;2053613;28;19910;-93
2023/07/19 02:39:09;;;;;;;;;;;;;;;;;;2053193;28;19930;-94
2023/07/19 02:40:33;;;;;;;;;;;;;;;;;;2054733;28;19953;-93
2023/07/19 02:41:54;;;;;;;;;;;;;;;;;;2055131;29;19910;-94
2023/07/19 02:43:15;;;;;;;;;;;;;;;;;;2061291;28;19910;-94
2023/07/19 02:44:36;;;;;;;;;;;;;;;;;;2057281;28;20375;-93
2023/07/19 02:45:57;;;;;;;;;;;;;;;;;;2054218;28;19915;-93
2023/07/19 02:47:17;;;;;;;;;;;;;;;;;;2056997;28;19937;-93
2023/07/19 02:48:38;;;;;;;;;;;;;;;;;;2057483;28;19910;-94
2023/07/19 02:49:59;;;;;;;;;;;;;;;;;;2069505;28;19916;-93
2023/07/19 02:51:22;;;;;;;;;;;;;;;;;;2062554;28;19905;-94
2023/07/19 02:52:43;;;;;;;;;;;;;;;;;;2060533;28;19906;-90
2023/07/19 02:54:04;;;;;;;;;;;;;;;;;;2049051;28;20285;-90
2023/07/19 02:55:24;;;;;;;;;;;;;;;;;;2052700;28;19981;-90
2023/07/19 02:56:45;;;;;;;;;;;;;;;;;;2050318;28;20409;-90
2023/07/19 02:58:06;;;;;;;;;;;;;;;;;;2059666;28;19917;-90
2023/07/19 02:59:27;;;;;;;;;;;;;;;;;;2050584;28;19925;-90
2023/07/19 03:00:47;;;;;;;;;;;;;;;;;;2059329;28;19905;-89
2023/07/19 03:02:09;;;;;;;;;;;;;;;;;;2055465;28;19906;-91
2023/07/19 03:03:30;;;;;;;;;;;;;;;;;;2061415;28;19913;-90
2023/07/19 03:04:50;;;;;;;;;;;;;;;;;;2058712;28;19910;-90
2023/07/19 03:06:11;;;;;;;;;;;;;;;;;;2057082;28;19917;-90
2023/07/19 03:07:32;;;;;;;;;;;;;;;;;;2048613;28;20354;-89
2023/07/19 03:08:55;;;;;;;;;;;;;;;;;;2058833;28;19906;-90
2023/07/19 03:10:16;;;;;;;;;;;;;;;;;;2055552;28;19913;-90
2023/07/19 03:11:37;;;;;;;;;;;;;;;;;;2058334;28;19917;-90
2023/07/19 03:12:58;;;;;;;;;;;;;;;;;;2056248;28;19917;-90
2023/07/19 03:14:18;;;;;;;;;;;;;;;;;;2054125;28;19906;-90
2023/07/19 03:15:39;;;;;;;;;;;;;;;;;;2057058;28;19906;-90
2023/07/19 03:17:00;;;;;;;;;;;;;;;;;;2058183;28;20391;-90
2023/07/19 03:18:21;;;;;;;;;;;;;;;;;;2063502;28;19905;-90
2023/07/19 03:19:41;;;;;;;;;;;;;;;;;;2054249;28;20249;-90
2023/07/19 03:21:02;;;;;;;;;;;;;;;;;;2052734;28;20218;-90
2023/07/19 03:22:23;;;;;;;;;;;;;;;;;;2057222;28;19914;-90
2023/07/19 03:23:44;;;;;;;;;;;;;;;;;;2051342;28;19907;-90
2023/07/19 03:25:05;;;;;;;;;;;;;;;;;;2058759;28;19921;-90
2023/07/19 03:26:26;;;;;;;;;;;;;;;;;;2046372;28;19921;-90
2023/07/19 03:27:47;;;;;;;;;;;;;;;;;;2056076;28;19914;-90
2023/07/19 03:29:08;;;;;;;;;;;;;;;;;;2057401;28;19906;-90
2023/07/19 03:30:29;;;;;;;;;;;;;;;;;;2055570;28;19929;-90
2023/07/19 03:31:49;;;;;;;;;;;;;;;;;;2060398;28;19933;-90
2023/07/19 03:33:10;;;;;;;;;;;;;;;;;;2055455;28;19913;-90
2023/07/19 03:34:31;;;;;;;;;;;;;;;;;;2053166;28;19906;-90
2023/07/19 03:35:52;;;;;;;;;;;;;;;;;;2064008;28;19913;-90
2023/07/19 03:37:13;;;;;;;;;;;;;;;;;;2064093;28;19914;-90
2023/07/19 03:38:34;;;;;;;;;;;;;;;;;;2051174;28;19913;-90
2023/07/19 03:39:54;;;;;;;;;;;;;;;;;;2057438;28;19910;-90
2023/07/19 03:41:15;;;;;;;;;;;;;;;;;;2054364;28;19965;-90
2023/07/19 03:42:36;;;;;;;;;;;;;;;;;;2060605;28;19898;-90
2023/07/19 03:43:57;;;;;;;;;;;;;;;;;;2066420;28;20360;-90
2023/07/19 03:45:17;;;;;;;;;;;;;;;;;;2060054;28;19909;-90
2023/07/19 03:46:38;;;;;;;;;;;;;;;;;;2050111;28;19925;-90
2023/07/19 03:47:59;;;;;;;;;;;;;;;;;;2057660;28;20373;-90
2023/07/19 03:49:20;;;;;;;;;;;;;;;;;;2057525;28;19913;-90
2023/07/19 03:50:40;;;;;;;;;;;;;;;;;;2073061;28;20404;-90
2023/07/19 03:52:01;;;;;;;;;;;;;;;;;;2056255;28;19906;-90
2023/07/19 03:53:22;;;;;;;;;;;;;;;;;;2069056;28;20356;-90
2023/07/19 03:54:43;;;;;;;;;;;;;;;;;;2058258;28;19906;-91
2023/07/19 03:56:03;;;;;;;;;;;;;;;;;;2059203;28;19906;-90
2023/07/19 03:57:24;;;;;;;;;;;;;;;;;;2058903;28;19914;-90
2023/07/19 03:58:48;;;;;;;;;;;;;;;;;;2064579;28;19914;-90
2023/07/19 04:00:09;;;;;;;;;;;;;;;;;;2054474;28;19906;-91
2023/07/19 04:01:30;;;;;;;;;;;;;;;;;;2060450;28;19913;-90
2023/07/19 04:02:51;;;;;;;;;;;;;;;;;;2064021;28;19905;-90
2023/07/19 04:04:11;;;;;;;;;;;;;;;;;;2061464;28;19914;-90
2023/07/19 04:05:32;;;;;;;;;;;;;;;;;;2060568;28;20412;-89
2023/07/19 04:06:53;;;;;;;;;;;;;;;;;;2046685;29;19925;-90
2023/07/19 04:09:53;;;;;;;;;;;;;;;;;;2059175;28;19910;-90
2023/07/19 04:11:13;;;;;;;;;;;;;;;;;;2071395;28;19970;-90
2023/07/19 04:12:34;;;;;;;;;;;;;;;;;;2068355;28;19914;-90
2023/07/19 04:13:55;;;;;;;;;;;;;;;;;;2060160;28;20364;-90
2023/07/19 04:15:16;;;;;;;;;;;;;;;;;;2055471;28;19933;-90
2023/07/19 04:16:36;;;;;;;;;;;;;;;;;;2058939;28;19906;-90
2023/07/19 04:17:57;;;;;;;;;;;;;;;;;;2056477;28;19902;-90
2023/07/19 04:19:21;;;;;;;;;;;;;;;;;;2058484;28;19987;-90
2023/07/19 04:20:42;;;;;;;;;;;;;;;;;;2049994;28;20453;-90
2023/07/19 04:22:03;;;;;;;;;;;;;;;;;;2051144;28;19953;-91
2023/07/19 04:23:23;;;;;;;;;;;;;;;;;;2055356;28;20324;-90
2023/07/19 04:24:44;;;;;;;;;;;;;;;;;;2054936;28;20342;-90
2023/07/19 04:26:05;;;;;;;;;;;;;;;;;;2051533;28;19917;-90
2023/07/19 04:27:26;;;;;;;;;;;;;;;;;;2053858;28;20034;-90
2023/07/19 04:28:47;;;;;;;;;;;;;;;;;;2063901;28;19990;-90
2023/07/19 04:30:08;;;;;;;;;;;;;;;;;;2055057;28;20333;-90
2023/07/19 04:31:29;;;;;;;;;;;;;;;;;;2048355;28;19910;-90
2023/07/19 04:32:54;;;;;;;;;;;;;;;;;;2046139;28;20400;-90
2023/07/19 04:34:17;;;;;;;;;;;;;;;;;;2051945;28;19918;-93
2023/07/19 04:35:38;;;;;;;;;;;;;;;;;;2046175;28;19922;-89
2023/07/19 04:36:59;;;;;;;;;;;;;;;;;;2049308;28;19910;-89
2023/07/19 04:38:20;;;;;;;;;;;;;;;;;;2067271;28;19906;-90
2023/07/19 04:39:40;;;;;;;;;;;;;;;;;;2061186;28;19917;-90
2023/07/19 04:41:08;;;;;;;;;;;;;;;;;;2052645;28;19906;-91
2023/07/19 04:42:29;;;;;;;;;;;;;;;;;;2060362;28;19905;-91
2023/07/19 04:43:56;;;;;;;;;;;;;;;;;;2056634;28;19993;-90
2023/07/19 04:45:16;;;;;;;;;;;;;;;;;;2055996;28;19910;-90
2023/07/19 04:46:37;;;;;;;;;;;;;;;;;;2056966;28;19914;-90
2023/07/19 04:48:03;;;;;;;;;;;;;;;;;;2054583;28;19912;-90
2023/07/19 04:49:25;;;;;;;;;;;;;;;;;;2056974;28;19910;-90
2023/07/19 04:50:49;;;;;;;;;;;;;;;;;;2055967;28;19906;-93
2023/07/19 04:52:09;;;;;;;;;;;;;;;;;;2050956;28;19917;-93
2023/07/19 04:53:30;;;;;;;;;;;;;;;;;;2055793;28;20408;-93
2023/07/19 04:54:51;;;;;;;;;;;;;;;;;;2058819;28;19906;-93
2023/07/19 04:56:15;;;;;;;;;;;;;;;;;;2061260;28;20338;-93
2023/07/19 09:04:55;;;;;;;;;;;;;;;;;;1432737;23;20199;-90
2023/07/19 09:06:16;;;;;;;;;;;;;;;;;;2064334;28;19984;-92
2023/07/19 09:07:37;;;;;;;;;;;;;;;;;;2049907;28;19906;-92
2023/07/19 09:09:18;;;;;;;;;;;;;;;;;;2031212;29;19922;-89
2023/07/19 09:10:39;;;;;;;;;;;;;;;;;;2050697;28;19926;-89
2023/07/19 09:12:00;;;;;;;;;;;;;;;;;;2055032;28;20022;-91
2023/07/19 10:53:34;;;;;;;;;;;;;;;;;;2066940;28;19917;-87
2023/07/19 10:54:58;;;;;;;;;;;;;;;;;;2060122;28;19910;-87
2023/07/19 10:56:18;;;;;;;;;;;;;;;;;;2056100;28;19910;-88
2023/07/19 10:57:39;;;;;;;;;;;;;;;;;;2060186;28;19933;-87
2023/07/19 10:59:00;;;;;;;;;;;;;;;;;;2055030;28;19917;-87
2023/07/19 11:00:21;;;;;;;;;;;;;;;;;;2057919;28;19910;-87
2023/07/19 11:01:41;;;;;;;;;;;;;;;;;;2044121;28;19911;-87
2023/07/19 11:03:02;;;;;;;;;;;;;;;;;;2059321;28;19914;-88
2023/07/19 11:04:23;;;;;;;;;;;;;;;;;;2044771;29;19986;-87
2023/07/19 11:05:44;;;;;;;;;;;;;;;;;;2059645;28;19906;-87
2023/07/19 11:07:20;;;;;;;;;;;;;;;;;;2054052;28;19906;-88
2023/07/19 11:08:48;;;;;;;;;;;;;;;;;;2058191;28;19921;-87
2023/07/19 11:10:09;;;;;;;;;;;;;;;;;;2061117;28;20393;-87
2023/07/19 11:11:32;;;;;;;;;;;;;;;;;;2055196;28;19914;-87
2023/07/19 11:12:56;;;;;;;;;;;;;;;;;;2055607;28;19917;-88
2023/07/19 11:14:16;;;;;;;;;;;;;;;;;;2070773;28;19909;-88
2023/07/19 11:15:37;;;;;;;;;;;;;;;;;;2067536;28;19894;-87
2023/07/19 11:16:58;;;;;;;;;;;;;;;;;;2059122;28;20000;-87
2023/07/19 11:18:19;;;;;;;;;;;;;;;;;;2068586;28;19904;-88
2023/07/19 11:19:40;;;;;;;;;;;;;;;;;;2051412;28;20412;-88
2023/07/19 11:21:01;;;;;;;;;;;;;;;;;;2057097;28;19933;-88
2023/07/19 11:22:22;;;;;;;;;;;;;;;;;;2054325;28;19906;-87
2023/07/19 11:23:48;;;;;;;;;;;;;;;;;;2063435;28;20033;-88
2023/07/19 11:25:19;;;;;;;;;;;;;;;;;;;;;
2023/07/19 11:26:53;;;;;;;;;;;;;;;;;;;;;
2023/07/19 11:28:14;;;;;;;;;;;;;;;;;;2065881;28;19913;-88
2023/07/19 11:29:35;;;;;;;;;;;;;;;;;;2066261;28;19922;-88
2023/07/19 11:30:56;;;;;;;;;;;;;;;;;;2059065;28;19932;-89
2023/07/19 11:32:18;;;;;;;;;;;;;;;;;;2063437;28;20008;-88
2023/07/19 11:33:40;;;;;;;;;;;;;;;;;;2065363;28;19910;-87
2023/07/19 11:35:03;;;;;;;;;;;;;;;;;;2064494;28;20309;-88
2023/07/19 11:36:33;;;;;;;;;;;;;;;;;;2066513;28;19909;-88
2023/07/19 11:37:57;;;;;;;;;;;;;;;;;;2064783;28;19913;-87
2023/07/19 11:39:18;;;;;;;;;;;;;;;;;;2058161;28;19989;-88
2023/07/19 11:40:40;;;;;;;;;;;;;;;;;;2063309;28;19913;-88
2023/07/19 11:42:01;;;;;;;;;;;;;;;;;;2065239;28;20264;-87
2023/07/19 11:43:22;;;;;;;;;;;;;;;;;;2062210;28;19918;-88
2023/07/19 11:44:42;;;;;;;;;;;;;;;;;;2065006;28;19992;-87
2023/07/19 11:46:03;;;;;;;;;;;;;;;;;;2057639;28;19982;-94
2023/07/19 11:47:24;;;;;;;;;;;;;;;;;;2065890;28;20217;-94
2023/07/19 11:48:47;;;;;;;;;;;;;;;;;;2064031;28;19913;-95
2023/07/19 11:50:08;;;;;;;;;;;;;;;;;;2066127;28;19917;-95
2023/07/19 11:51:32;;;;;;;;;;;;;;;;;;2063907;28;19906;-94
2023/07/19 11:53:07;;;;;;;;;;;;;;;;;;2057702;28;19922;-95
2023/07/19 11:54:37;;;;;;;;;;;;;;;;;;2056844;28;19906;-94
2023/07/19 12:17:38;;;;;;;;;;;;;;;;;;2150883;23;20020;-96
2023/07/19 12:19:01;;;;;;;;;;;;;;;;;;2059440;28;19929;-96
2023/07/19 12:22:49;;;;;;;;;;;;;;;;;;2136467;23;20228;-92
2023/07/19 12:24:12;;;;;;;;;;;;;;;;;;2066053;28;19936;-91
2023/07/19 12:36:10;;;;;;;;;;;;;;;;;;1947293;23;3594937;-93
2023/07/19 12:37:34;;;;;;;;;;;;;;;;;;2050885;28;19913;-94
2023/07/19 12:38:58;;;;;;;;;;;;;;;;;;2073794;28;19984;-94
2023/07/19 12:40:19;;;;;;;;;;;;;;;;;;2042863;28;19937;-94
2023/07/19 12:41:40;;;;;;;;;;;;;;;;;;2061371;28;19910;-95
2023/07/19 12:43:03;;;;;;;;;;;;;;;;;;2063847;28;19906;-95
2023/07/19 12:44:24;;;;;;;;;;;;;;;;;;2067361;28;19916;-94
2023/07/19 12:45:45;;;;;;;;;;;;;;;;;;2065398;28;19905;-95
2023/07/19 12:47:13;;;;;;;;;;;;;;;;;;2066216;28;20253;-94
2023/07/19 12:48:35;;;;;;;;;;;;;;;;;;2058428;28;19906;-94
2023/07/19 12:49:56;;;;;;;;;;;;;;;;;;2049743;28;20289;-94
2023/07/19 12:51:19;;;;;;;;;;;;;;;;;;2067798;28;20229;-94
2023/07/19 12:52:39;;;;;;;;;;;;;;;;;;2061129;28;19906;-94
2023/07/19 12:54:02;;;;;;;;;;;;;;;;;;2059793;28;20369;-94
2023/07/19 12:55:23;;;;;;;;;;;;;;;;;;2058791;28;19914;-95
2023/07/19 12:56:44;;;;;;;;;;;;;;;;;;2053190;28;19906;-94
2023/07/19 12:58:05;;;;;;;;;;;;;;;;;;2059858;28;20040;-96
2023/07/19 12:59:25;;;;;;;;;;;;;;;;;;2061822;28;19923;-95
2023/07/19 13:00:46;;;;;;;;;;;;;;;;;;2050199;28;20376;-94
2023/07/19 13:02:07;;;;;;;;;;;;;;;;;;2061696;28;19925;-95
2023/07/19 13:03:28;;;;;;;;;;;;;;;;;;2060210;28;20377;-93
2023/07/19 13:04:48;;;;;;;;;;;;;;;;;;2061172;28;19913;-94
2023/07/19 13:06:09;;;;;;;;;;;;;;;;;;2054714;28;19906;-94
2023/07/19 13:07:32;;;;;;;;;;;;;;;;;;2059079;28;20410;-93
2023/07/19 13:08:52;;;;;;;;;;;;;;;;;;2057232;28;19917;-93
2023/07/19 13:10:13;;;;;;;;;;;;;;;;;;2044721;28;19902;-94
2023/07/19 13:11:40;;;;;;;;;;;;;;;;;;2056915;28;19916;-93
2023/07/19 13:13:03;;;;;;;;;;;;;;;;;;2060153;28;19933;-93
2023/07/19 13:14:24;;;;;;;;;;;;;;;;;;2052169;28;19913;-92
2023/07/19 13:15:45;;;;;;;;;;;;;;;;;;2061693;28;20001;-93
2023/07/19 13:17:06;;;;;;;;;;;;;;;;;;2055119;28;19913;-93
2023/07/19 13:18:35;;;;;;;;;;;;;;;;;;2057174;28;19917;-92
2023/07/19 13:20:21;;;;;;;;;;;;;;;;;;2056904;28;19910;-93
2023/07/19 13:23:25;;;;;;;;;;;;;;;;;;2069183;28;20306;-93
2023/07/19 13:24:46;;;;;;;;;;;;;;;;;;2061597;28;20324;-93
2023/07/19 13:26:06;;;;;;;;;;;;;;;;;;2066240;28;19933;-92
2023/07/19 13:27:27;;;;;;;;;;;;;;;;;;2053568;28;20029;-93
2023/07/19 13:28:58;;;;;;;;;;;;;;;;;;;;;
2023/07/19 13:30:19;;;;;;;;;;;;;;;;;;2044960;28;19918;-93
2023/07/19 13:33:30;;;;;;;;;;;;;;;;;;2066588;28;19993;-93
2023/07/19 13:34:59;;;;;;;;;;;;;;;;;;2057248;28;19962;-96
2023/07/19 13:36:19;;;;;;;;;;;;;;;;;;2059498;28;19906;-93
2023/07/19 13:37:40;;;;;;;;;;;;;;;;;;2053105;28;19998;-91
2023/07/19 13:39:01;;;;;;;;;;;;;;;;;;2053288;28;19910;-90
2023/07/19 13:40:24;;;;;;;;;;;;;;;;;;2046544;28;19922;-91
2023/07/19 13:43:26;;;;;;;;;;;;;;;;;;2034425;28;19908;-93
2023/07/19 13:44:46;;;;;;;;;;;;;;;;;;2056798;28;19910;-92
2023/07/19 13:46:13;;;;;;;;;;;;;;;;;;2057932;28;20301;-94
2023/07/19 13:47:34;;;;;;;;;;;;;;;;;;2055450;28;19910;-93
2023/07/19 13:49:12;;;;;;;;;;;;;;;;;;2055896;28;19929;-92
2023/07/19 13:50:33;;;;;;;;;;;;;;;;;;2070459;28;19920;-92
2023/07/19 13:51:54;;;;;;;;;;;;;;;;;;2061725;28;19917;-93
2023/07/19 13:53:15;;;;;;;;;;;;;;;;;;2055816;28;19925;-92
2023/07/19 13:54:35;;;;;;;;;;;;;;;;;;2057640;28;19921;-93
2023/07/19 13:55:56;;;;;;;;;;;;;;;;;;2055628;28;19913;-92
2023/07/19 13:57:17;;;;;;;;;;;;;;;;;;2061073;28;19917;-91
2023/07/19 14:02:11;;;;;;;;;;;;;;;;;;2074497;28;19932;-91
2023/07/19 14:06:50;;;;;;;;;;;;;;;;;;2070758;28;19909;-92
2023/07/19 14:08:17;;;;;;;;;;;;;;;;;;2056332;28;19914;-92
2023/07/19 14:09:41;;;;;;;;;;;;;;;;;;2057795;28;19914;-93
2023/07/19 14:11:02;;;;;;;;;;;;;;;;;;2063133;28;19988;-92
2023/07/19 14:12:22;;;;;;;;;;;;;;;;;;2063280;28;19917;-92
2023/07/19 14:13:48;;;;;;;;;;;;;;;;;;2057326;28;19913;-93
2023/07/19 14:15:11;;;;;;;;;;;;;;;;;;2060899;28;20040;-92
2023/07/19 14:16:37;;;;;;;;;;;;;;;;;;2061602;28;19933;-92
2023/07/19 14:19:57;;;;;;;;;;;;;;;;;;2041662;28;19907;-92
2023/07/19 14:21:30;;;;;;;;;;;;;;;;;;2042669;28;19923;-91
2023/07/19 14:23:00;;;;;;;;;;;;;;;;;;2060838;28;19982;-90
2023/07/19 14:24:21;;;;;;;;;;;;;;;;;;2049442;28;19910;-92
2023/07/19 14:25:57;;;;;;;;;;;;;;;;;;2052944;28;19907;-91
2023/07/19 14:27:17;;;;;;;;;;;;;;;;;;2071829;28;20325;-91
2023/07/19 14:28:38;;;;;;;;;;;;;;;;;;2062174;28;19910;-92
2023/07/19 14:29:59;;;;;;;;;;;;;;;;;;2053738;28;19938;-91
2023/07/19 14:31:32;;;;;;;;;;;;;;;;;;2048957;28;19918;-91
2023/07/19 14:34:39;;;;;;;;;;;;;;;;;;2064152;28;19989;-91
2023/07/19 14:43:04;;;;;;;;;;;;;;;;;;2056842;28;20258;-91
2023/07/19 14:49:34;;;;;;;;;;;;;;;;;;2044655;29;19929;-92
2023/07/19 14:50:55;;;;;;;;;;;;;;;;;;2027862;29;20370;-91
2023/07/19 14:52:15;;;;;;;;;;;;;;;;;;2047141;29;19914;-91
2023/07/19 14:53:36;;;;;;;;;;;;;;;;;;2049576;28;19910;-91
2023/07/19 14:55:00;;;;;;;;;;;;;;;;;;2051041;28;19906;-91
2023/07/19 14:56:21;;;;;;;;;;;;;;;;;;2055441;28;19938;-89
2023/07/19 14:57:43;;;;;;;;;;;;;;;;;;2049968;28;19919;-91
2023/07/19 14:59:04;;;;;;;;;;;;;;;;;;2052260;28;19926;-91
2023/07/19 15:00:27;;;;;;;;;;;;;;;;;;2048437;29;19918;-91
2023/07/19 15:01:51;;;;;;;;;;;;;;;;;;2047757;28;19918;-91
2023/07/19 15:03:12;;;;;;;;;;;;;;;;;;2051764;28;19913;-91
2023/07/19 15:04:35;;;;;;;;;;;;;;;;;;2050799;29;19966;-90
2023/07/19 15:05:56;;;;;;;;;;;;;;;;;;2053683;28;19950;-91
2023/07/19 15:07:17;;;;;;;;;;;;;;;;;;2051497;28;19934;-91
2023/07/19 15:08:37;;;;;;;;;;;;;;;;;;2050068;28;19965;-92
2023/07/19 15:10:01;;;;;;;;;;;;;;;;;;2055210;28;19906;-91
2023/07/19 15:11:22;;;;;;;;;;;;;;;;;;2044285;29;19918;-92
2023/07/19 15:12:43;;;;;;;;;;;;;;;;;;2057560;28;19934;-91
2023/07/19 15:14:16;;;;;;;;;;;;;;;;;;2040494;29;19907;-91
2023/07/19 15:15:37;;;;;;;;;;;;;;;;;;2051967;28;20365;-91
2023/07/19 15:16:58;;;;;;;;;;;;;;;;;;2050908;28;19911;-90
2023/07/19 15:18:21;;;;;;;;;;;;;;;;;;2049263;28;19934;-91
2023/07/19 15:19:47;;;;;;;;;;;;;;;;;;2050365;29;19938;-91
2023/07/19 15:21:10;;;;;;;;;;;;;;;;;;2051789;28;19914;-90
2023/07/19 15:22:31;;;;;;;;;;;;;;;;;;2052973;28;19914;-91
2023/07/19 15:23:52;;;;;;;;;;;;;;;;;;2046421;28;19918;-91
2023/07/19 15:25:17;;;;;;;;;;;;;;;;;;2057833;28;19933;-88
2023/07/19 15:26:40;;;;;;;;;;;;;;;;;;2049295;29;19929;-90
2023/07/19 15:28:03;;;;;;;;;;;;;;;;;;2052578;28;19914;-93
2023/07/19 15:29:26;;;;;;;;;;;;;;;;;;2051974;28;19970;-91
2023/07/19 15:32:33;;;;;;;;;;;;;;;;;;2051869;28;19918;-92
2023/07/19 15:33:53;;;;;;;;;;;;;;;;;;2052837;28;19918;-93
2023/07/19 15:35:14;;;;;;;;;;;;;;;;;;2049844;29;19906;-94
2023/07/19 16:40:56;;;;;;;;;;;;;;;;;;2019013;29;19912;-76
2023/07/19 17:46:13;;;;;;;;;;;;;;;;;;2010064;29;19927;-76
2023/07/19 17:49:34;;;;;;;;;;;;;;;;;;1998647;29;19913;-76
2023/07/19 17:52:36;;;;;;;;;;;;;;;;;;2050324;28;19961;-76
2023/07/19 17:54:05;;;;;;;;;;;;;;;;;;2032701;29;19914;-76
2023/07/19 17:55:44;;;;;;;;;;;;;;;;;;2047811;29;19906;-78
2023/07/19 17:59:02;;;;;;;;;;;;;;;;;;2031357;29;19915;-77
2023/07/19 18:05:34;;;;;;;;;;;;;;;;;;2053439;28;19910;-76
2023/07/19 18:06:54;;;;;;;;;;;;;;;;;;2051656;28;20358;-77
2023/07/19 18:08:19;;;;;;;;;;;;;;;;;;2047878;29;19906;-77
2023/07/19 18:09:39;;;;;;;;;;;;;;;;;;2045233;29;20354;-77
2023/07/19 18:11:00;;;;;;;;;;;;;;;;;;2045978;29;20336;-76
2023/07/19 18:12:29;;;;;;;;;;;;;;;;;;2053714;28;19914;-77
2023/07/19 18:13:50;;;;;;;;;;;;;;;;;;2046540;28;19922;-76
2023/07/19 18:15:11;;;;;;;;;;;;;;;;;;2053092;28;19917;-77
2023/07/19 18:16:47;;;;;;;;;;;;;;;;;;2047766;28;19922;-76
2023/07/19 18:18:08;;;;;;;;;;;;;;;;;;2043700;28;20397;-76
2023/07/19 18:19:30;;;;;;;;;;;;;;;;;;2051473;28;19961;-77
2023/07/19 18:20:52;;;;;;;;;;;;;;;;;;2054488;28;19917;-77
2023/07/19 18:24:17;;;;;;;;;;;;;;;;;;2056602;28;19977;-79
2023/07/19 18:25:41;;;;;;;;;;;;;;;;;;2058450;28;19917;-79
2023/07/19 18:27:44;;;;;;;;;;;;;;;;;;2049728;29;19957;-79
2023/07/19 18:29:11;;;;;;;;;;;;;;;;;;;;;
2023/07/19 18:32:30;;;;;;;;;;;;;;;;;;2056406;28;19905;-79
2023/07/19 18:33:51;;;;;;;;;;;;;;;;;;2045456;28;19918;-79
2023/07/19 18:37:32;;;;;;;;;;;;;;;;;;;;;
2023/07/19 18:43:53;;;;;;;;;;;;;;;;;;2055046;28;20289;-78
2023/07/19 18:56:40;;;;;;;;;;;;;;;;;;2201751;23;19926;-92
2023/07/19 18:58:01;;;;;;;;;;;;;;;;;;2058731;28;19925;-91